Platitera Tonouranon — SX7180 — position and weather

sailwx.info

Track history (hours):
 
Tides and Currents Weather Stations Pressure Air Temp Water Temp Dewpoint Dewpoint Depression Visibility Wind Speed Wind Dir Waves Ship Positions

Platitera Tonouranon

Last reported at 2016-Jul-06 08:33 UTC. Time now 2016-Aug-25 13:14 UTC.
Position N 37°58' E 023°34'.
Warning: this ship's position is 50 days out of date.

Length 55 m; draft 3.8 m.

Type: Ship (hazmat cat A). MMSI: 237038200.

Date/timePositionNaut miles runAvg speedWind from/ knotsBaromVisibWave heightAir tempDewpointWater temp
2016-Jul-06 08:33N 37°58' E 023°34'0 0.0
2016-Jul-06 07:33N 37°58' E 023°34'0 0.0
2016-Jul-06 06:33N 37°58' E 023°34'1 1.0
2016-Jul-06 05:34N 37°57' E 023°35'5 4.7
2016-Jul-06 04:33N 37°56' E 023°41'0 0.0
2016-Jul-05 21:14N 37°56' E 023°41'0 0.0
2016-Jul-05 20:33N 37°56' E 023°41'0 0.0
2016-Jul-05 19:33N 37°56' E 023°41'0 0.0
2016-Jul-05 18:33N 37°56' E 023°41'0 0.0
2016-Jul-05 17:33N 37°56' E 023°41'4 4.4
2016-Jul-05 16:33N 37°54' E 023°36'1111.4
2016-Jul-05 15:33N 37°46' E 023°26'2 0.8
2016-Jul-05 13:30N 37°45' E 023°26'9 9.9
2016-Jul-05 12:33N 37°35' E 023°26'5 5.5
2016-Jul-05 11:33N 37°30' E 023°27'6 5.5
2016-Jul-05 10:29N 37°25' E 023°31'5 5.0
2016-Jul-05 09:33N 37°21' E 023°28'1 0.5
2016-Jul-05 08:32N 37°22' E 023°28'1111.5
2016-Jul-05 07:33N 37°32' E 023°33'1211.7
2016-Jul-05 06:33N 37°44' E 023°35'13 6.7
2016-Jul-05 04:33N 37°56' E 023°41'0 0.0
2016-Jul-05 03:33N 37°56' E 023°41'0 0.0
2016-Jul-04 21:34N 37°56' E 023°41'0 0.0
2016-Jul-04 20:33N 37°56' E 023°41'0 0.0
2016-Jul-04 19:33N 37°56' E 023°41'0 0.0
2016-Jul-04 18:33N 37°56' E 023°41'0 0.0
2016-Jul-04 17:33N 37°56' E 023°41'4 3.8
2016-Jul-04 16:33N 37°54' E 023°37'1111.2
2016-Jul-04 15:33N 37°47' E 023°26'2 1.0
2016-Jul-04 13:23N 37°45' E 023°25'910.4
2016-Jul-04 12:32N 37°36' E 023°26'6 6.0
2016-Jul-04 11:32N 37°30' E 023°27'5 5.4
2016-Jul-04 10:33N 37°26' E 023°32'6 6.3
2016-Jul-04 09:33N 37°21' E 023°28'0 0.0
2016-Jul-04 08:33N 37°21' E 023°28'10 9.7
2016-Jul-04 07:33N 37°30' E 023°31'1211.9
2016-Jul-04 06:33N 37°42' E 023°34'1211.8
2016-Jul-04 05:33N 37°53' E 023°38'3 3.5
2016-Jul-04 04:33N 37°56' E 023°41'0 0.0
2016-Jul-04 03:33N 37°56' E 023°41'0 0.0
2016-Jul-03 22:18N 37°56' E 023°41'0 0.0
2016-Jul-03 21:33N 37°56' E 023°41'0 0.0
2016-Jul-03 20:33N 37°56' E 023°41'0 0.0
2016-Jul-03 19:33N 37°56' E 023°41'0 0.0
2016-Jul-03 18:33N 37°56' E 023°41'0 0.0
2016-Jul-03 17:33N 37°56' E 023°41'2 2.4
2016-Jul-03 16:33N 37°54' E 023°40'1212.3
2016-Jul-03 15:33N 37°42' E 023°35'1212.4
2016-Jul-03 14:33N 37°30' E 023°32'10 9.5
2016-Jul-03 13:33N 37°21' E 023°28'0 0.0
2016-Jul-03 12:33N 37°21' E 023°28'6 6.2
2016-Jul-03 11:33N 37°27' E 023°32'5 5.2
2016-Jul-03 10:33N 37°30' E 023°27'4 4.1
2016-Jul-03 09:33N 37°34' E 023°25'11 8.8
2016-Jul-03 08:18N 37°45' E 023°26'0 0.0
2016-Jul-03 07:33N 37°45' E 023°26'1 1.1
2016-Jul-03 06:33N 37°46' E 023°25'1211.6
2016-Jul-03 05:33N 37°53' E 023°36'5 5.1
2016-Jul-03 04:33N 37°56' E 023°41'0 0.0
2016-Jul-03 03:33N 37°56' E 023°41'0 0.0
2016-Jul-02 20:33N 37°56' E 023°41'0 0.0
2016-Jul-02 19:33N 37°56' E 023°41'0 0.0
2016-Jul-02 18:33N 37°56' E 023°41'0 0.0
2016-Jul-02 17:33N 37°56' E 023°41'2 2.4
2016-Jul-02 16:33N 37°55' E 023°39'1211.6
2016-Jul-02 15:33N 37°48' E 023°27'3 2.8
2016-Jul-02 14:30N 37°45' E 023°26'0 0.0
2016-Jul-02 13:15N 37°45' E 023°26'7 9.9
2016-Jul-02 12:32N 37°38' E 023°25'8 8.1
2016-Jul-02 11:33N 37°30' E 023°27'4 3.8
2016-Jul-02 10:32N 37°28' E 023°31'7 7.2
2016-Jul-02 09:33N 37°21' E 023°28'0 0.0
2016-Jul-02 08:33N 37°21' E 023°28'7 7.2
2016-Jul-02 07:33N 37°27' E 023°33'1211.5
2016-Jul-02 06:33N 37°39' E 023°34'18 9.3
2016-Jul-02 04:33N 37°56' E 023°41'0 0.0
2016-Jul-02 03:33N 37°56' E 023°41'0 0.0
2016-Jul-02 02:33N 37°56' E 023°41'0 0.0
2016-Jul-02 01:33N 37°56' E 023°41'0 0.0
2016-Jul-02 00:33N 37°56' E 023°41'0 0.0
2016-Jul-01 23:33N 37°56' E 023°41'0 0.0
2016-Jul-01 22:33N 37°56' E 023°41'0 0.0
2016-Jul-01 21:33N 37°56' E 023°41'0 0.0
2016-Jul-01 20:33N 37°56' E 023°41'0 0.0
2016-Jul-01 19:33N 37°56' E 023°41'0 0.0
2016-Jul-01 18:33N 37°56' E 023°41'0 0.0
2016-Jul-01 17:33N 37°56' E 023°41'3 2.6
2016-Jul-01 16:33N 37°55' E 023°38'1211.7
2016-Jul-01 15:33N 37°47' E 023°27'3 2.7
2016-Jul-01 14:32N 37°45' E 023°26'0 0.0
2016-Jul-01 13:28N 37°45' E 023°26'9 9.4
2016-Jul-01 12:33N 37°36' E 023°25'6 6.3
2016-Jul-01 11:33N 37°30' E 023°27'6 5.7
2016-Jul-01 10:26N 37°24' E 023°31'4 4.5
2016-Jul-01 09:33N 37°21' E 023°28'1 1.2
2016-Jul-01 08:33N 37°22' E 023°29'1111.0
2016-Jul-01 07:33N 37°33' E 023°32'1111.1
2016-Jul-01 06:33N 37°44' E 023°34'1211.5
2016-Jul-01 05:33N 37°54' E 023°39'2 2.1
2016-Jul-01 04:33N 37°56' E 023°41'0 0.0
2016-Jul-01 03:33N 37°56' E 023°41'0 0.0
2016-Jul-01 02:33N 37°56' E 023°41'0 0.0
2016-Jul-01 01:33N 37°56' E 023°41'0 0.0
2016-Jul-01 00:33N 37°56' E 023°41'0 0.0
2016-Jun-30 23:33N 37°56' E 023°41'0 0.0
2016-Jun-30 22:33N 37°56' E 023°41'0 0.0
2016-Jun-30 21:33N 37°56' E 023°41'0 0.0
2016-Jun-30 20:33N 37°56' E 023°41'0 0.0
2016-Jun-30 19:33N 37°56' E 023°41'0 0.0
2016-Jun-30 18:34N 37°56' E 023°41'0 0.0
2016-Jun-30 17:33N 37°56' E 023°41'0 0.0
2016-Jun-30 16:33N 37°56' E 023°41'0 0.0
2016-Jun-30 15:33N 37°56' E 023°41'0 0.0
2016-Jun-30 14:33N 37°56' E 023°41'0 0.0
2016-Jun-30 13:33N 37°56' E 023°41'0 0.0
2016-Jun-30 12:33N 37°56' E 023°41'0 0.0
2016-Jun-30 11:33N 37°56' E 023°41'0 0.0
2016-Jun-30 10:33N 37°56' E 023°41'0 0.0
2016-Jun-30 09:34N 37°56' E 023°41'0 0.0
2016-Jun-30 08:33N 37°56' E 023°41'0 0.0
2016-Jun-30 07:33N 37°56' E 023°41'0 0.0
2016-Jun-30 06:33N 37°56' E 023°41'0 0.2
2016-Jun-30 05:33N 37°56' E 023°41'0 0.1
2016-Jun-30 04:33N 37°56' E 023°41'0 0.1
2016-Jun-30 03:33N 37°56' E 023°41'0 0.0
2016-Jun-29 21:33N 37°56' E 023°41'0 0.0
2016-Jun-29 20:33N 37°56' E 023°41'0 0.0
2016-Jun-29 19:33N 37°56' E 023°41'0 0.0
2016-Jun-29 18:33N 37°56' E 023°41'0 0.0
2016-Jun-29 17:33N 37°56' E 023°41'2 2.1
2016-Jun-29 16:33N 37°55' E 023°39'1211.9
2016-Jun-29 15:34N 37°47' E 023°27'3 2.8
2016-Jun-29 14:31N 37°45' E 023°26'0 0.0
2016-Jun-29 13:17N 37°45' E 023°26'811.3
2016-Jun-29 12:33N 37°36' E 023°25'7 6.6
2016-Jun-29 11:33N 37°30' E 023°27'6 5.5
2016-Jun-29 10:28N 37°25' E 023°31'5 4.9
2016-Jun-29 09:32N 37°21' E 023°28'0 0.2
2016-Jun-29 08:33N 37°21' E 023°28'1111.2
2016-Jun-29 07:33N 37°32' E 023°33'1111.3
2016-Jun-29 06:34N 37°43' E 023°34'1211.5
2016-Jun-29 05:34N 37°54' E 023°39'3 2.8
2016-Jun-29 04:34N 37°56' E 023°41'0 0.0
2016-Jun-29 03:33N 37°56' E 023°41'0 0.0
2016-Jun-28 19:33N 37°56' E 023°41'0 0.0
2016-Jun-28 18:33N 37°56' E 023°41'0 0.0
2016-Jun-28 17:33N 37°56' E 023°41'2 2.4
2016-Jun-28 16:33N 37°55' E 023°39'1211.6
2016-Jun-28 15:33N 37°47' E 023°28'3 2.8
2016-Jun-28 14:33N 37°45' E 023°26'0 0.0
2016-Jun-28 13:33N 37°45' E 023°26'8 7.8
2016-Jun-28 12:33N 37°37' E 023°25'7 7.1
2016-Jun-28 11:33N 37°30' E 023°27'5 5.4
2016-Jun-28 10:33N 37°26' E 023°32'6 6.1
2016-Jun-28 09:33N 37°21' E 023°28'0 0.1
2016-Jun-28 08:33N 37°21' E 023°28'1110.6
2016-Jun-28 07:33N 37°31' E 023°32'1111.3
2016-Jun-28 06:33N 37°43' E 023°33'15 7.4
2016-Jun-28 04:33N 37°56' E 023°41'0 0.0
2016-Jun-28 03:32N 37°56' E 023°41'0 0.0
2016-Jun-27 20:34N 37°56' E 023°41'0 0.0
2016-Jun-27 19:34N 37°56' E 023°41'0 0.0
2016-Jun-27 18:34N 37°56' E 023°41'0 0.0
2016-Jun-27 17:33N 37°56' E 023°41'2 2.5
2016-Jun-27 16:33N 37°55' E 023°39'1111.4
2016-Jun-27 15:33N 37°48' E 023°27'3 3.0
2016-Jun-27 14:32N 37°45' E 023°26'0 0.0
2016-Jun-27 13:32N 37°45' E 023°26'7 7.1
2016-Jun-27 12:33N 37°38' E 023°25'8 7.8
2016-Jun-27 11:33N 37°30' E 023°27'5 5.0
2016-Jun-27 10:33N 37°27' E 023°32'6 6.4
2016-Jun-27 09:33N 37°21' E 023°28'0 0.0
2016-Jun-27 08:33N 37°21' E 023°28'1010.5
2016-Jun-27 07:33N 37°31' E 023°32'1111.3
2016-Jun-27 06:33N 37°42' E 023°34'1211.8
2016-Jun-27 05:33N 37°53' E 023°39'3 3.2
2016-Jun-27 04:33N 37°56' E 023°41'0 0.0
2016-Jun-27 03:33N 37°56' E 023°41'0 0.0
2016-Jun-26 20:33N 37°56' E 023°41'0 0.0
2016-Jun-26 19:33N 37°56' E 023°41'0 0.0
2016-Jun-26 18:33N 37°56' E 023°41'0 0.0
2016-Jun-26 17:33N 37°56' E 023°41'7 6.9
2016-Jun-26 16:33N 37°52' E 023°34'10 4.6
2016-Jun-26 14:22N 37°45' E 023°26'0 0.3
2016-Jun-26 13:33N 37°45' E 023°25'1211.7
2016-Jun-26 12:33N 37°34' E 023°30'1110.7
2016-Jun-26 11:33N 37°23' E 023°29'2 2.0
2016-Jun-26 10:33N 37°21' E 023°28'6 5.4
2016-Jun-26 09:25N 37°26' E 023°32'  
Track history (hours):
 
Tides and Currents Weather Stations Pressure Air Temp Water Temp Dewpoint Dewpoint Depression Visibility Wind Speed Wind Dir Waves Ship Positions

Platitera Tonouranon

Last reported at 2016-Jul-06 08:33 UTC. Time now 2016-Aug-25 13:14 UTC.
Position N 37°58' E 023°34'.
Warning: this ship's position is 50 days out of date.

Length 55 m; draft 3.8 m.

Type: Ship (hazmat cat A). MMSI: 237038200.

Date/timePositionNaut miles runAvg speedWind from/ knotsBaromVisibWave heightAir tempDewpointWater temp
2016-Jul-06 08:33N 37°58' E 023°34'0 0.0
2016-Jul-06 07:33N 37°58' E 023°34'0 0.0
2016-Jul-06 06:33N 37°58' E 023°34'1 1.0
2016-Jul-06 05:34N 37°57' E 023°35'5 4.7
2016-Jul-06 04:33N 37°56' E 023°41'0 0.0
2016-Jul-05 21:14N 37°56' E 023°41'0 0.0
2016-Jul-05 20:33N 37°56' E 023°41'0 0.0
2016-Jul-05 19:33N 37°56' E 023°41'0 0.0
2016-Jul-05 18:33N 37°56' E 023°41'0 0.0
2016-Jul-05 17:33N 37°56' E 023°41'4 4.4
2016-Jul-05 16:33N 37°54' E 023°36'1111.4
2016-Jul-05 15:33N 37°46' E 023°26'2 0.8
2016-Jul-05 13:30N 37°45' E 023°26'9 9.9
2016-Jul-05 12:33N 37°35' E 023°26'5 5.5
2016-Jul-05 11:33N 37°30' E 023°27'6 5.5
2016-Jul-05 10:29N 37°25' E 023°31'5 5.0
2016-Jul-05 09:33N 37°21' E 023°28'1 0.5
2016-Jul-05 08:32N 37°22' E 023°28'1111.5
2016-Jul-05 07:33N 37°32' E 023°33'1211.7
2016-Jul-05 06:33N 37°44' E 023°35'13 6.7
2016-Jul-05 04:33N 37°56' E 023°41'0 0.0
2016-Jul-05 03:33N 37°56' E 023°41'0 0.0
2016-Jul-04 21:34N 37°56' E 023°41'0 0.0
2016-Jul-04 20:33N 37°56' E 023°41'0 0.0
2016-Jul-04 19:33N 37°56' E 023°41'0 0.0
2016-Jul-04 18:33N 37°56' E 023°41'0 0.0
2016-Jul-04 17:33N 37°56' E 023°41'4 3.8
2016-Jul-04 16:33N 37°54' E 023°37'1111.2
2016-Jul-04 15:33N 37°47' E 023°26'2 1.0
2016-Jul-04 13:23N 37°45' E 023°25'910.4
2016-Jul-04 12:32N 37°36' E 023°26'6 6.0
2016-Jul-04 11:32N 37°30' E 023°27'5 5.4
2016-Jul-04 10:33N 37°26' E 023°32'6 6.3
2016-Jul-04 09:33N 37°21' E 023°28'0 0.0
2016-Jul-04 08:33N 37°21' E 023°28'10 9.7
2016-Jul-04 07:33N 37°30' E 023°31'1211.9
2016-Jul-04 06:33N 37°42' E 023°34'1211.8
2016-Jul-04 05:33N 37°53' E 023°38'3 3.5
2016-Jul-04 04:33N 37°56' E 023°41'0 0.0
2016-Jul-04 03:33N 37°56' E 023°41'0 0.0
2016-Jul-03 22:18N 37°56' E 023°41'0 0.0
2016-Jul-03 21:33N 37°56' E 023°41'0 0.0
2016-Jul-03 20:33N 37°56' E 023°41'0 0.0
2016-Jul-03 19:33N 37°56' E 023°41'0 0.0
2016-Jul-03 18:33N 37°56' E 023°41'0 0.0
2016-Jul-03 17:33N 37°56' E 023°41'2 2.4
2016-Jul-03 16:33N 37°54' E 023°40'1212.3
2016-Jul-03 15:33N 37°42' E 023°35'1212.4
2016-Jul-03 14:33N 37°30' E 023°32'10 9.5
2016-Jul-03 13:33N 37°21' E 023°28'0 0.0
2016-Jul-03 12:33N 37°21' E 023°28'6 6.2
2016-Jul-03 11:33N 37°27' E 023°32'5 5.2
2016-Jul-03 10:33N 37°30' E 023°27'4 4.1
2016-Jul-03 09:33N 37°34' E 023°25'11 8.8
2016-Jul-03 08:18N 37°45' E 023°26'0 0.0
2016-Jul-03 07:33N 37°45' E 023°26'1 1.1
2016-Jul-03 06:33N 37°46' E 023°25'1211.6
2016-Jul-03 05:33N 37°53' E 023°36'5 5.1
2016-Jul-03 04:33N 37°56' E 023°41'0 0.0
2016-Jul-03 03:33N 37°56' E 023°41'0 0.0
2016-Jul-02 20:33N 37°56' E 023°41'0 0.0
2016-Jul-02 19:33N 37°56' E 023°41'0 0.0
2016-Jul-02 18:33N 37°56' E 023°41'0 0.0
2016-Jul-02 17:33N 37°56' E 023°41'2 2.4
2016-Jul-02 16:33N 37°55' E 023°39'1211.6
2016-Jul-02 15:33N 37°48' E 023°27'3 2.8
2016-Jul-02 14:30N 37°45' E 023°26'0 0.0
2016-Jul-02 13:15N 37°45' E 023°26'7 9.9
2016-Jul-02 12:32N 37°38' E 023°25'8 8.1
2016-Jul-02 11:33N 37°30' E 023°27'4 3.8
2016-Jul-02 10:32N 37°28' E 023°31'7 7.2
2016-Jul-02 09:33N 37°21' E 023°28'0 0.0
2016-Jul-02 08:33N 37°21' E 023°28'7 7.2
2016-Jul-02 07:33N 37°27' E 023°33'1211.5
2016-Jul-02 06:33N 37°39' E 023°34'18 9.3
2016-Jul-02 04:33N 37°56' E 023°41'0 0.0
2016-Jul-02 03:33N 37°56' E 023°41'0 0.0
2016-Jul-02 02:33N 37°56' E 023°41'0 0.0
2016-Jul-02 01:33N 37°56' E 023°41'0 0.0
2016-Jul-02 00:33N 37°56' E 023°41'0 0.0
2016-Jul-01 23:33N 37°56' E 023°41'0 0.0
2016-Jul-01 22:33N 37°56' E 023°41'0 0.0
2016-Jul-01 21:33N 37°56' E 023°41'0 0.0
2016-Jul-01 20:33N 37°56' E 023°41'0 0.0
2016-Jul-01 19:33N 37°56' E 023°41'0 0.0
2016-Jul-01 18:33N 37°56' E 023°41'0 0.0
2016-Jul-01 17:33N 37°56' E 023°41'3 2.6
2016-Jul-01 16:33N 37°55' E 023°38'1211.7
2016-Jul-01 15:33N 37°47' E 023°27'3 2.7
2016-Jul-01 14:32N 37°45' E 023°26'0 0.0
2016-Jul-01 13:28N 37°45' E 023°26'9 9.4
2016-Jul-01 12:33N 37°36' E 023°25'6 6.3
2016-Jul-01 11:33N 37°30' E 023°27'6 5.7
2016-Jul-01 10:26N 37°24' E 023°31'4 4.5
2016-Jul-01 09:33N 37°21' E 023°28'1 1.2
2016-Jul-01 08:33N 37°22' E 023°29'1111.0
2016-Jul-01 07:33N 37°33' E 023°32'1111.1
2016-Jul-01 06:33N 37°44' E 023°34'1211.5
2016-Jul-01 05:33N 37°54' E 023°39'2 2.1
2016-Jul-01 04:33N 37°56' E 023°41'0 0.0
2016-Jul-01 03:33N 37°56' E 023°41'0 0.0
2016-Jul-01 02:33N 37°56' E 023°41'0 0.0
2016-Jul-01 01:33N 37°56' E 023°41'0 0.0
2016-Jul-01 00:33N 37°56' E 023°41'0 0.0
2016-Jun-30 23:33N 37°56' E 023°41'0 0.0
2016-Jun-30 22:33N 37°56' E 023°41'0 0.0
2016-Jun-30 21:33N 37°56' E 023°41'0 0.0
2016-Jun-30 20:33N 37°56' E 023°41'0 0.0
2016-Jun-30 19:33N 37°56' E 023°41'0 0.0
2016-Jun-30 18:34N 37°56' E 023°41'0 0.0
2016-Jun-30 17:33N 37°56' E 023°41'0 0.0
2016-Jun-30 16:33N 37°56' E 023°41'0 0.0
2016-Jun-30 15:33N 37°56' E 023°41'0 0.0
2016-Jun-30 14:33N 37°56' E 023°41'0 0.0
2016-Jun-30 13:33N 37°56' E 023°41'0 0.0
2016-Jun-30 12:33N 37°56' E 023°41'0 0.0
2016-Jun-30 11:33N 37°56' E 023°41'0 0.0
2016-Jun-30 10:33N 37°56' E 023°41'0 0.0
2016-Jun-30 09:34N 37°56' E 023°41'0 0.0
2016-Jun-30 08:33N 37°56' E 023°41'0 0.0
2016-Jun-30 07:33N 37°56' E 023°41'0 0.0
2016-Jun-30 06:33N 37°56' E 023°41'0 0.2
2016-Jun-30 05:33N 37°56' E 023°41'0 0.1
2016-Jun-30 04:33N 37°56' E 023°41'0 0.1
2016-Jun-30 03:33N 37°56' E 023°41'0 0.0
2016-Jun-29 21:33N 37°56' E 023°41'0 0.0
2016-Jun-29 20:33N 37°56' E 023°41'0 0.0
2016-Jun-29 19:33N 37°56' E 023°41'0 0.0
2016-Jun-29 18:33N 37°56' E 023°41'0 0.0
2016-Jun-29 17:33N 37°56' E 023°41'2 2.1
2016-Jun-29 16:33N 37°55' E 023°39'1211.9
2016-Jun-29 15:34N 37°47' E 023°27'3 2.8
2016-Jun-29 14:31N 37°45' E 023°26'0 0.0
2016-Jun-29 13:17N 37°45' E 023°26'811.3
2016-Jun-29 12:33N 37°36' E 023°25'7 6.6
2016-Jun-29 11:33N 37°30' E 023°27'6 5.5
2016-Jun-29 10:28N 37°25' E 023°31'5 4.9
2016-Jun-29 09:32N 37°21' E 023°28'0 0.2
2016-Jun-29 08:33N 37°21' E 023°28'1111.2
2016-Jun-29 07:33N 37°32' E 023°33'1111.3
2016-Jun-29 06:34N 37°43' E 023°34'1211.5
2016-Jun-29 05:34N 37°54' E 023°39'3 2.8
2016-Jun-29 04:34N 37°56' E 023°41'0 0.0
2016-Jun-29 03:33N 37°56' E 023°41'0 0.0
2016-Jun-28 19:33N 37°56' E 023°41'0 0.0
2016-Jun-28 18:33N 37°56' E 023°41'0 0.0
2016-Jun-28 17:33N 37°56' E 023°41'2 2.4
2016-Jun-28 16:33N 37°55' E 023°39'1211.6
2016-Jun-28 15:33N 37°47' E 023°28'3 2.8
2016-Jun-28 14:33N 37°45' E 023°26'0 0.0
2016-Jun-28 13:33N 37°45' E 023°26'8 7.8
2016-Jun-28 12:33N 37°37' E 023°25'7 7.1
2016-Jun-28 11:33N 37°30' E 023°27'5 5.4
2016-Jun-28 10:33N 37°26' E 023°32'6 6.1
2016-Jun-28 09:33N 37°21' E 023°28'0 0.1
2016-Jun-28 08:33N 37°21' E 023°28'1110.6
2016-Jun-28 07:33N 37°31' E 023°32'1111.3
2016-Jun-28 06:33N 37°43' E 023°33'15 7.4
2016-Jun-28 04:33N 37°56' E 023°41'0 0.0
2016-Jun-28 03:32N 37°56' E 023°41'0 0.0
2016-Jun-27 20:34N 37°56' E 023°41'0 0.0
2016-Jun-27 19:34N 37°56' E 023°41'0 0.0
2016-Jun-27 18:34N 37°56' E 023°41'0 0.0
2016-Jun-27 17:33N 37°56' E 023°41'2 2.5
2016-Jun-27 16:33N 37°55' E 023°39'1111.4
2016-Jun-27 15:33N 37°48' E 023°27'3 3.0
2016-Jun-27 14:32N 37°45' E 023°26'0 0.0
2016-Jun-27 13:32N 37°45' E 023°26'7 7.1
2016-Jun-27 12:33N 37°38' E 023°25'8 7.8
2016-Jun-27 11:33N 37°30' E 023°27'5 5.0
2016-Jun-27 10:33N 37°27' E 023°32'6 6.4
2016-Jun-27 09:33N 37°21' E 023°28'0 0.0
2016-Jun-27 08:33N 37°21' E 023°28'1010.5
2016-Jun-27 07:33N 37°31' E 023°32'1111.3
2016-Jun-27 06:33N 37°42' E 023°34'1211.8
2016-Jun-27 05:33N 37°53' E 023°39'3 3.2
2016-Jun-27 04:33N 37°56' E 023°41'0 0.0
2016-Jun-27 03:33N 37°56' E 023°41'0 0.0
2016-Jun-26 20:33N 37°56' E 023°41'0 0.0
2016-Jun-26 19:33N 37°56' E 023°41'0 0.0
2016-Jun-26 18:33N 37°56' E 023°41'0 0.0
2016-Jun-26 17:33N 37°56' E 023°41'7 6.9
2016-Jun-26 16:33N 37°52' E 023°34'10 4.6
2016-Jun-26 14:22N 37°45' E 023°26'0 0.3
2016-Jun-26 13:33N 37°45' E 023°25'1211.7
2016-Jun-26 12:33N 37°34' E 023°30'1110.7
2016-Jun-26 11:33N 37°23' E 023°29'2 2.0
2016-Jun-26 10:33N 37°21' E 023°28'6 5.4
2016-Jun-26 09:25N 37°26' E 023°32'  

Dump ship's entire track history